createdAt,value
2022-09-05T00:01:57.480Z,1.17
2022-09-05T00:04:47.086Z,0.90
2022-09-05T00:07:37.485Z,1.43
2022-09-05T00:10:24.421Z,1.83
2022-09-05T00:13:07.022Z,0.80
2022-09-05T00:16:30.227Z,1.43
2022-09-05T00:24:17.161Z,1.10
2022-09-05T00:24:34.755Z,1.03
2022-09-05T00:28:25.948Z,1.07
2022-09-05T00:31:53.814Z,1.50
2022-09-05T00:34:47.519Z,0.80
2022-09-05T00:37:26.605Z,1.60
2022-09-05T00:40:27.418Z,1.00
2022-09-05T00:42:58.300Z,1.17
2022-09-05T00:45:31.672Z,1.10
2022-09-05T00:48:08.167Z,0.80
2022-09-05T00:50:56.644Z,1.50
2022-09-05T00:53:40.219Z,1.23
2022-09-05T00:56:43.913Z,1.90
2022-09-05T00:59:28.569Z,1.40
2022-09-05T01:02:07.056Z,1.27
2022-09-05T01:05:01.163Z,1.40
2022-09-05T01:07:46.618Z,1.50
2022-09-05T01:10:35.040Z,2.10
2022-09-05T01:13:23.490Z,1.00
2022-09-05T01:16:16.027Z,1.67
2022-09-05T01:18:47.863Z,1.57
2022-09-05T01:21:20.072Z,1.40
2022-09-05T01:23:50.408Z,1.43
2022-09-05T01:26:33.536Z,1.03
2022-09-05T01:29:17.872Z,2.40
2022-09-05T01:32:09.808Z,1.53
2022-09-05T01:34:57.369Z,1.67
2022-09-05T01:37:47.934Z,1.33
2022-09-05T01:40:36.711Z,1.50
2022-09-05T01:43:06.149Z,2.10
2022-09-05T01:45:52.623Z,1.43
2022-09-05T01:48:34.025Z,1.90
2022-09-05T01:51:31.681Z,1.70
2022-09-05T01:54:24.626Z,1.30
2022-09-05T01:56:53.356Z,1.53
2022-09-05T01:59:31.279Z,1.50
2022-09-05T02:02:13.868Z,1.47
2022-09-05T02:04:46.281Z,1.43
2022-09-05T02:07:30.151Z,1.73
2022-09-05T02:10:12.840Z,1.20
2022-09-05T02:12:58.443Z,1.53
2022-09-05T02:15:41.885Z,1.03
2022-09-05T02:18:19.768Z,1.63
2022-09-05T02:20:53.503Z,1.40
2022-09-05T02:23:41.836Z,1.60
2022-09-05T02:26:28.929Z,1.90
2022-09-05T02:29:11.287Z,1.30
2022-09-05T02:31:48.926Z,1.10
2022-09-05T02:34:38.698Z,0.90
2022-09-05T02:37:14.269Z,0.90
2022-09-05T02:45:09.268Z,1.80
2022-09-05T02:45:21.234Z,0.80
2022-09-05T02:46:12.280Z,1.70
2022-09-05T02:49:04.889Z,1.70
2022-09-05T02:57:26.917Z,1.50
2022-09-05T02:57:37.041Z,1.13
2022-09-05T02:58:05.242Z,1.47
2022-09-05T03:00:48.109Z,1.97
2022-09-05T03:03:42.498Z,1.23
2022-09-05T03:06:34.393Z,1.50
2022-09-05T03:09:40.047Z,1.80
2022-09-05T03:12:33.811Z,2.20
2022-09-05T03:15:24.777Z,1.57
2022-09-05T03:18:20.952Z,1.50
2022-09-05T03:21:23.137Z,1.23
2022-09-05T03:24:23.399Z,2.20
2022-09-05T03:27:17.539Z,2.03
2022-09-05T03:29:58.633Z,2.17
2022-09-05T03:32:49.988Z,2.10
2022-09-05T03:35:25.396Z,1.20
2022-09-05T03:38:06.601Z,1.17
2022-09-05T03:41:01.849Z,1.93
2022-09-05T03:43:40.386Z,2.73
2022-09-05T03:46:29.293Z,1.40
2022-09-05T03:49:20.124Z,1.03
2022-09-05T03:57:08.303Z,2.30
2022-09-05T03:57:12.689Z,1.37
2022-09-05T03:58:55.507Z,1.50
2022-09-05T04:03:12.926Z,1.83
2022-09-05T04:08:16.192Z,1.73
2022-09-05T04:08:17.421Z,2.10
2022-09-05T04:10:40.568Z,1.60
2022-09-05T04:13:26.852Z,1.63
2022-09-05T04:16:17.161Z,1.97
2022-09-05T04:19:08.079Z,1.37
2022-09-05T04:21:48.291Z,1.10
2022-09-05T04:24:45.628Z,2.53
2022-09-05T04:27:27.918Z,2.60
2022-09-05T04:30:37.918Z,1.63
2022-09-05T04:33:03.047Z,2.07
2022-09-05T04:35:45.871Z,3.27
2022-09-05T04:38:33.693Z,1.87
2022-09-05T04:41:04.436Z,2.10
2022-09-05T04:43:48.182Z,2.20
2022-09-05T04:46:30.810Z,2.40
2022-09-05T04:49:07.642Z,1.43
2022-09-05T04:51:46.153Z,2.30
2022-09-05T04:54:50.940Z,1.47
2022-09-05T04:57:20.275Z,1.90
2022-09-05T05:06:02.263Z,2.00
2022-09-05T05:06:09.427Z,2.60
2022-09-05T05:06:20.301Z,2.07
2022-09-05T05:08:45.617Z,2.20
2022-09-05T05:18:02.135Z,1.53
2022-09-05T05:18:06.169Z,2.27
2022-09-05T05:18:14.074Z,1.40
2022-09-05T05:20:43.025Z,2.13
2022-09-05T05:23:08.292Z,1.60
2022-09-05T05:25:53.273Z,1.90
2022-09-05T05:28:28.935Z,1.40
2022-09-05T05:31:01.678Z,2.30
2022-09-05T05:33:35.487Z,2.30
2022-09-05T05:36:06.970Z,2.00
2022-09-05T05:38:57.367Z,2.00
2022-09-05T05:41:44.029Z,1.50
2022-09-05T05:44:17.426Z,1.53
2022-09-05T05:47:18.850Z,1.90
2022-09-05T05:50:02.858Z,2.17
2022-09-05T05:52:45.054Z,1.23
2022-09-05T05:55:51.695Z,2.10
2022-09-05T05:58:36.068Z,2.27
2022-09-05T06:01:38.836Z,2.53
2022-09-05T06:04:44.688Z,2.47
2022-09-05T06:07:50.989Z,3.30
2022-09-05T06:14:50.807Z,2.43
2022-09-05T06:14:56.249Z,3.33
2022-09-05T06:16:49.709Z,1.87
2022-09-05T06:22:05.779Z,2.80
2022-09-05T06:23:39.786Z,1.80
2022-09-05T06:26:25.274Z,1.50
2022-09-05T06:28:56.373Z,1.47
2022-09-05T06:32:17.559Z,3.17
2022-09-05T06:35:09.782Z,1.57
2022-09-05T06:38:02.204Z,1.93
2022-09-05T06:40:36.370Z,2.23
2022-09-05T06:43:14.801Z,3.23
2022-09-05T06:45:58.594Z,2.23
2022-09-05T06:48:46.063Z,2.37
2022-09-05T06:52:27.966Z,3.00
2022-09-05T06:55:23.951Z,1.90
2022-09-05T06:58:27.786Z,2.37
2022-09-05T07:00:57.109Z,2.70
2022-09-05T07:03:33.102Z,2.63
2022-09-05T07:06:19.492Z,2.50
2022-09-05T07:08:53.717Z,2.37
2022-09-05T07:11:44.837Z,2.40
2022-09-05T07:14:24.814Z,2.53
2022-09-05T07:16:56.197Z,2.20
2022-09-05T07:19:29.295Z,2.93
2022-09-05T07:22:29.598Z,2.97
2022-09-05T07:24:56.553Z,2.77
2022-09-05T07:27:34.347Z,2.83
2022-09-05T07:30:21.401Z,2.47
2022-09-05T07:32:53.384Z,3.33
2022-09-05T07:35:26.269Z,2.57
2022-09-05T07:38:15.044Z,2.07
2022-09-05T07:40:46.578Z,3.73
2022-09-05T07:43:22.367Z,2.20
2022-09-05T07:45:56.501Z,2.53
2022-09-05T07:48:35.134Z,3.40
2022-09-05T07:56:28.648Z,2.47
2022-09-05T07:57:00.799Z,2.60
2022-09-05T07:59:43.106Z,2.03
2022-09-05T08:02:12.802Z,2.67
2022-09-05T08:04:41.845Z,2.83
2022-09-05T08:07:47.346Z,2.67
2022-09-05T08:10:09.474Z,2.70
2022-09-05T08:13:22.807Z,2.23
2022-09-05T08:16:11.050Z,2.17
2022-09-05T08:18:49.944Z,2.03
2022-09-05T08:21:43.719Z,1.73
2022-09-05T08:24:13.582Z,1.93
2022-09-05T08:26:47.202Z,3.50
2022-09-05T08:29:20.209Z,1.40
2022-09-05T08:31:52.418Z,2.53
2022-09-05T08:34:50.998Z,1.40
2022-09-05T08:37:21.532Z,2.37
2022-09-05T08:40:11.670Z,2.53
2022-09-05T08:42:58.983Z,2.40
2022-09-05T08:46:36.041Z,1.60
2022-09-05T08:48:56.297Z,2.97
2022-09-05T08:51:29.892Z,1.83
2022-09-05T08:54:24.693Z,1.83
2022-09-05T08:57:03.249Z,1.70
2022-09-05T09:00:19.379Z,1.80
2022-09-05T09:02:49.204Z,1.80
2022-09-05T09:05:18.689Z,2.30
2022-09-05T09:08:15.844Z,1.70
2022-09-05T09:10:57.641Z,1.57
2022-09-05T09:13:53.218Z,1.80
2022-09-05T09:16:25.922Z,2.10
2022-09-05T09:18:52.345Z,1.80
2022-09-05T09:21:34.187Z,1.80
2022-09-05T09:24:33.250Z,1.57
2022-09-05T09:27:09.189Z,2.13
2022-09-05T09:29:42.047Z,1.70
2022-09-05T09:32:14.987Z,1.43
2022-09-05T09:34:47.569Z,1.30
2022-09-05T09:37:50.747Z,1.00
2022-09-05T09:40:36.540Z,1.60
2022-09-05T09:43:27.235Z,1.33
2022-09-05T09:46:23.266Z,0.73
2022-09-05T09:49:21.644Z,1.00
2022-09-05T09:51:54.920Z,1.33
2022-09-05T09:54:45.341Z,1.00
2022-09-05T09:57:32.626Z,1.67
2022-09-05T10:00:21.096Z,1.53
2022-09-05T10:04:07.325Z,0.90
2022-09-05T10:10:45.322Z,0.80
2022-09-05T10:10:50.760Z,1.37
2022-09-05T10:12:23.427Z,1.17
2022-09-05T10:15:04.977Z,1.30
2022-09-05T10:18:20.366Z,1.07
2022-09-05T10:21:21.695Z,0.90
2022-09-05T10:24:11.142Z,1.50
2022-09-05T10:26:37.568Z,1.43
2022-09-05T10:29:30.168Z,0.90
2022-09-05T10:35:05.310Z,1.00
2022-09-05T10:35:13.681Z,0.80
2022-09-05T10:37:54.789Z,1.53
2022-09-05T10:40:24.181Z,1.00
2022-09-05T10:43:02.453Z,0.90
2022-09-05T10:45:38.604Z,1.50
2022-09-05T10:48:26.682Z,1.10
2022-09-05T10:51:03.237Z,0.90
2022-09-05T10:53:39.250Z,1.07
2022-09-05T10:56:14.675Z,1.03
2022-09-05T11:01:59.310Z,1.30
2022-09-05T11:02:30.353Z,1.13
2022-09-05T11:04:58.507Z,0.60
2022-09-05T11:08:01.773Z,0.60
2022-09-05T11:11:03.185Z,1.10
2022-09-05T11:13:46.432Z,1.90
2022-09-05T11:16:24.490Z,0.80
2022-09-05T11:19:07.305Z,1.43
2022-09-05T11:22:22.143Z,0.90
2022-09-05T11:25:00.835Z,1.07
2022-09-05T11:27:40.900Z,0.90
2022-09-05T11:30:29.626Z,1.07
2022-09-05T11:39:35.099Z,0.80
2022-09-05T11:40:06.568Z,1.20
2022-09-05T11:40:07.047Z,0.90
2022-09-05T11:42:09.937Z,0.80
2022-09-05T11:44:42.659Z,1.37
2022-09-05T11:47:37.058Z,1.03
2022-09-05T11:50:29.586Z,0.90
2022-09-05T11:53:38.184Z,0.60
2022-09-05T11:56:41.873Z,0.50
2022-09-05T11:59:37.095Z,0.77
2022-09-05T12:02:16.932Z,0.80
2022-09-05T12:05:48.993Z,1.10
2022-09-05T12:08:38.660Z,0.63
2022-09-05T12:11:14.113Z,1.93
2022-09-05T12:13:48.093Z,1.20
2022-09-05T12:16:59.043Z,1.23
2022-09-05T12:19:34.821Z,0.80
2022-09-05T12:22:24.013Z,0.87
2022-09-05T12:25:25.146Z,0.70
2022-09-05T12:28:48.396Z,0.50
2022-09-05T12:32:50.276Z,0.60
2022-09-05T12:36:04.976Z,0.70
2022-09-05T12:40:35.535Z,0.53
2022-09-05T12:41:36.240Z,0.67
2022-09-05T12:43:53.103Z,0.80
2022-09-05T12:48:38.912Z,0.80
2022-09-05T12:51:08.991Z,1.10
2022-09-05T12:53:50.638Z,0.70
2022-09-05T13:00:36.267Z,0.57
2022-09-05T13:02:58.987Z,0.63
2022-09-05T13:03:12.591Z,1.20
2022-09-05T13:05:18.569Z,0.70
2022-09-05T13:07:56.122Z,1.30
2022-09-05T13:14:47.370Z,0.77
2022-09-05T13:15:02.615Z,0.60
2022-09-05T13:16:23.023Z,0.70
2022-09-05T13:19:04.347Z,0.90
2022-09-05T13:21:31.571Z,0.60
2022-09-05T13:24:14.372Z,0.80
2022-09-05T13:26:59.469Z,0.50
2022-09-05T13:29:37.223Z,1.30
2022-09-05T13:38:01.201Z,0.80
2022-09-05T13:38:02.272Z,0.77
2022-09-05T13:38:37.710Z,0.90
2022-09-05T13:40:58.292Z,0.63
2022-09-05T13:43:30.264Z,0.90
2022-09-05T13:46:17.864Z,0.60
2022-09-05T13:52:05.617Z,0.60
2022-09-05T13:54:51.110Z,0.90
2022-09-05T13:57:39.683Z,0.70
2022-09-05T14:00:26.751Z,0.60
2022-09-05T14:03:38.748Z,0.77
2022-09-05T14:06:48.650Z,1.00
2022-09-05T14:09:57.775Z,1.20
2022-09-05T14:13:00.417Z,0.70
2022-09-05T14:15:52.243Z,0.47
2022-09-05T14:19:02.228Z,0.80
2022-09-05T14:21:31.780Z,1.07
2022-09-05T14:24:11.658Z,0.90
2022-09-05T14:27:00.222Z,1.10
2022-09-05T14:29:38.920Z,0.60
2022-09-05T14:37:46.202Z,0.40
2022-09-05T14:38:00.828Z,0.87
2022-09-05T14:38:56.883Z,0.90
2022-09-05T14:41:37.313Z,0.60
2022-09-05T14:44:22.047Z,0.57
2022-09-05T14:46:57.425Z,0.80
2022-09-05T14:49:51.098Z,0.83
2022-09-05T14:52:30.378Z,0.63
2022-09-05T15:02:45.187Z,0.77
2022-09-05T15:02:47.894Z,0.80
2022-09-05T15:06:33.277Z,0.77
2022-09-05T15:12:18.208Z,0.67
2022-09-05T15:12:20.853Z,1.13
2022-09-05T15:14:36.442Z,0.90
2022-09-05T15:17:05.726Z,0.77
2022-09-05T15:20:05.562Z,0.40
2022-09-05T15:22:36.361Z,0.80
2022-09-05T15:25:12.269Z,0.50
2022-09-05T15:27:43.873Z,0.50
2022-09-05T15:30:21.593Z,0.50
2022-09-05T15:32:50.568Z,0.53
2022-09-05T15:35:36.565Z,0.80
2022-09-05T15:38:30.717Z,0.90
2022-09-05T15:41:19.852Z,0.50
2022-09-05T15:44:03.061Z,0.53
2022-09-05T15:47:03.512Z,1.00
2022-09-05T15:49:35.779Z,0.60
2022-09-05T15:52:29.316Z,0.47
2022-09-05T15:55:01.565Z,1.23
2022-09-05T15:57:35.415Z,0.83
2022-09-05T16:00:09.045Z,0.70
2022-09-05T16:02:45.249Z,2.23
2022-09-05T16:10:36.492Z,1.00
2022-09-05T16:10:39.495Z,0.97
2022-09-05T16:12:09.286Z,0.50
2022-09-05T16:14:39.667Z,0.60
2022-09-05T16:23:18.737Z,1.40
2022-09-05T16:23:24.442Z,0.50
2022-09-05T16:23:40.427Z,2.43
2022-09-05T16:26:25.733Z,0.77
2022-09-05T16:29:25.279Z,0.97
2022-09-05T16:32:17.179Z,0.77
2022-09-05T16:34:57.078Z,0.70
2022-09-05T16:37:58.334Z,0.70
2022-09-05T16:40:30.922Z,0.80
2022-09-05T16:43:05.857Z,0.70
2022-09-05T16:45:46.615Z,1.13
2022-09-05T16:48:36.133Z,0.70
2022-09-05T16:51:15.658Z,1.10
2022-09-05T16:53:59.572Z,0.77
2022-09-05T16:56:35.008Z,0.70
2022-09-05T16:59:27.038Z,0.80
2022-09-05T17:02:07.524Z,0.73
2022-09-05T17:05:05.732Z,0.90
2022-09-05T17:07:53.442Z,1.00
2022-09-05T17:10:26.679Z,0.57
2022-09-05T17:12:54.311Z,3.33
2022-09-05T17:15:29.517Z,0.53
2022-09-05T17:18:20.487Z,0.70
2022-09-05T17:20:56.931Z,0.57
2022-09-05T17:26:20.291Z,0.70
2022-09-05T17:29:49.893Z,1.00
2022-09-05T17:32:33.355Z,1.07
2022-09-05T17:35:17.956Z,0.67
2022-09-05T17:38:11.604Z,0.80
2022-09-05T17:41:12.901Z,1.00
2022-09-05T17:43:40.813Z,0.60
2022-09-05T17:46:26.836Z,0.83
2022-09-05T17:49:18.239Z,0.83
2022-09-05T17:52:18.322Z,1.63
2022-09-05T17:54:52.299Z,1.20
2022-09-05T17:57:27.701Z,0.50
2022-09-05T18:00:12.258Z,0.93
2022-09-05T18:02:56.593Z,0.77
2022-09-05T18:05:54.535Z,0.53
2022-09-05T18:08:49.398Z,0.60
2022-09-05T18:11:25.184Z,0.70
2022-09-05T18:14:02.207Z,0.60
2022-09-05T18:19:34.237Z,0.80
2022-09-05T18:22:11.289Z,0.60
2022-09-05T18:24:45.354Z,0.80
2022-09-05T18:28:03.814Z,1.17
2022-09-05T18:30:10.935Z,0.63
2022-09-05T18:33:55.223Z,1.10
2022-09-05T18:35:55.771Z,0.60
2022-09-05T18:38:51.574Z,0.60
2022-09-05T18:41:18.816Z,1.13
2022-09-05T18:44:13.597Z,0.90
2022-09-05T18:46:50.665Z,0.50
2022-09-05T18:50:26.955Z,1.03
2022-09-05T18:52:33.403Z,0.70
2022-09-05T18:56:09.255Z,0.40
2022-09-05T18:58:05.594Z,0.70
2022-09-05T19:00:44.807Z,0.80
2022-09-05T19:03:28.829Z,0.60
2022-09-05T19:06:34.502Z,0.80
2022-09-05T19:08:55.973Z,0.77
2022-09-05T19:11:38.572Z,0.90
2022-09-05T19:14:43.595Z,0.63
2022-09-05T19:17:20.963Z,1.40
2022-09-05T19:20:32.927Z,1.20
2022-09-05T19:23:11.579Z,0.70
2022-09-05T19:25:41.220Z,0.80
2022-09-05T19:36:44.311Z,0.80
2022-09-05T19:37:03.614Z,1.20
2022-09-05T19:37:10.874Z,1.07
2022-09-05T19:42:20.064Z,0.60
2022-09-05T19:47:35.723Z,1.20
2022-09-05T19:47:47.154Z,0.60
2022-09-05T19:48:27.327Z,0.90
2022-09-05T19:51:16.108Z,0.90
2022-09-05T19:54:01.329Z,0.50
2022-09-05T19:56:37.648Z,0.77
2022-09-05T19:59:34.123Z,0.97
2022-09-05T20:02:02.445Z,0.80
2022-09-05T20:04:37.904Z,0.83
2022-09-05T20:07:31.567Z,1.03
2022-09-05T20:10:01.745Z,0.63
2022-09-05T20:12:32.209Z,1.00
2022-09-05T20:15:20.884Z,0.90
2022-09-05T20:17:47.418Z,1.37
2022-09-05T20:20:28.193Z,1.33
2022-09-05T20:23:05.620Z,0.77
2022-09-05T20:25:40.056Z,0.60
2022-09-05T20:28:10.757Z,0.80
2022-09-05T20:30:42.266Z,0.80
2022-09-05T20:33:38.120Z,0.97
2022-09-05T20:43:11.363Z,0.80
2022-09-05T20:43:20.808Z,1.00
2022-09-05T20:43:29.617Z,1.27
2022-09-05T20:44:48.240Z,0.70
2022-09-05T20:54:09.786Z,0.87
2022-09-05T20:54:14.957Z,1.20
2022-09-05T20:54:19.063Z,1.20
2022-09-05T20:56:30.924Z,0.87
2022-09-05T20:59:01.169Z,0.97
2022-09-05T21:01:30.343Z,1.00
2022-09-05T21:04:02.385Z,1.20
2022-09-05T21:06:33.552Z,0.60
2022-09-05T21:09:24.735Z,1.50
2022-09-05T21:11:58.650Z,0.80
2022-09-05T21:14:28.116Z,0.70
2022-09-05T21:17:04.597Z,0.77
2022-09-05T21:19:41.820Z,1.10
2022-09-05T21:22:23.941Z,0.60
2022-09-05T21:25:15.443Z,1.07
2022-09-05T21:27:43.135Z,0.80
2022-09-05T21:30:22.132Z,1.40
2022-09-05T21:32:55.364Z,1.40
2022-09-05T21:35:35.159Z,0.73
2022-09-05T21:38:02.208Z,0.83
2022-09-05T21:40:28.910Z,0.77
2022-09-05T21:47:33.202Z,0.70
2022-09-05T21:47:39.163Z,1.47
2022-09-05T21:48:34.532Z,0.60
2022-09-05T21:51:13.023Z,0.70
2022-09-05T21:55:10.709Z,1.43
2022-09-05T21:59:25.802Z,1.53
2022-09-05T21:59:46.038Z,0.90
2022-09-05T22:02:16.601Z,1.00
2022-09-05T22:04:43.362Z,0.83
2022-09-05T22:07:27.370Z,0.60
2022-09-05T22:09:59.812Z,0.90
2022-09-05T22:12:31.366Z,0.70
2022-09-05T22:14:59.368Z,1.13
2022-09-05T22:17:45.780Z,0.97
2022-09-05T22:20:16.887Z,0.80
2022-09-05T22:22:45.275Z,1.57
2022-09-05T22:25:35.628Z,1.27
2022-09-05T22:28:06.200Z,0.90
2022-09-05T22:30:35.743Z,0.70
2022-09-05T22:33:05.304Z,1.07
2022-09-05T22:35:33.672Z,0.60
2022-09-05T22:38:10.511Z,1.00
2022-09-05T22:40:40.024Z,1.03
2022-09-05T22:43:08.879Z,1.27
2022-09-05T22:45:37.248Z,0.93
2022-09-05T22:48:09.637Z,1.30
2022-09-05T22:50:37.169Z,1.43
2022-09-05T22:53:06.824Z,1.27
2022-09-05T22:55:38.392Z,1.03
2022-09-05T22:58:07.364Z,0.90
2022-09-05T23:00:34.632Z,0.97
2022-09-05T23:03:03.394Z,1.27
2022-09-05T23:05:29.923Z,0.80
2022-09-05T23:08:00.468Z,1.10
2022-09-05T23:10:27.795Z,1.10
2022-09-05T23:12:54.239Z,1.50
2022-09-05T23:15:20.769Z,1.10
2022-09-05T23:17:58.298Z,1.40
2022-09-05T23:20:27.129Z,1.57
2022-09-05T23:22:53.690Z,0.50
2022-09-05T23:25:21.445Z,1.23
2022-09-05T23:27:48.650Z,1.23
2022-09-05T23:30:15.309Z,1.20
2022-09-05T23:32:49.467Z,0.70
2022-09-05T23:35:17.923Z,1.30
2022-09-05T23:37:45.785Z,1.00
2022-09-05T23:40:14.016Z,1.00
2022-09-05T23:42:41.473Z,0.70
2022-09-05T23:45:09.089Z,1.10
2022-09-05T23:47:36.424Z,1.40
2022-09-05T23:50:03.764Z,1.30
2022-09-05T23:52:30.278Z,1.00
2022-09-05T23:54:56.702Z,1.20
2022-09-05T23:57:23.910Z,1.03
2022-09-05T23:59:52.381Z,0.93
